Time;durP1;ratioP1;P1;durP2;ratioP2;P2;SDS_P1;SDS_P2;PMS_P1;PMS_P2;Temp;Humidity;BMP_temperature;BMP_pressure;BME280_temperature;BME280_humidity;BME280_pressure;Samples;Min_cycle;Max_cycle;Signal;HPM_P1;HPM_P2
2022/10/31 00:00:07;;;;;;;5.38;3.80;;;;;;;14.13;nan;95509.78;5046076;28;20261;-73
2022/10/31 00:02:34;;;;;;;6.57;3.53;;;;;;;13.94;nan;95509.69;5044392;28;20219;-75
2022/10/31 00:05:00;;;;;;;6.35;4.18;;;;;;;13.76;nan;95514.69;5046519;28;20658;-72
2022/10/31 00:07:27;;;;;;;10.30;3.83;;;;;;;13.72;nan;95515.69;5045532;28;20264;-72
2022/10/31 00:09:54;;;;;;;3.72;3.40;;;;;;;13.91;nan;95508.97;5045854;28;20669;-73
2022/10/31 00:12:20;;;;;;;4.00;3.67;;;;;;;13.74;nan;95509.63;5045649;28;20210;-73
2022/10/31 00:14:48;;;;;;;4.00;3.40;;;;;;;13.76;nan;95507.03;5045601;28;20636;-75
2022/10/31 00:17:15;;;;;;;4.30;3.58;;;;;;;13.93;nan;95507.19;5046091;28;20259;-74
2022/10/31 00:19:42;;;;;;;10.02;4.05;;;;;;;14.05;nan;95516.09;5044764;28;20256;-72
2022/10/31 00:22:08;;;;;;;4.65;3.72;;;;;;;14.04;nan;95512.72;5044120;28;20727;-72
2022/10/31 00:24:35;;;;;;;4.80;3.80;;;;;;;13.98;nan;95502.72;5044368;28;20308;-72
2022/10/31 00:27:02;;;;;;;4.93;4.38;;;;;;;13.87;nan;95499.75;5044367;28;20303;-74
2022/10/31 00:29:29;;;;;;;4.45;4.05;;;;;;;13.87;nan;95505.69;5047124;28;20222;-72
2022/10/31 00:31:57;;;;;;;6.90;4.40;;;;;;;14.03;nan;95505.09;5045624;28;20211;-72
2022/10/31 00:34:23;;;;;;;5.13;4.70;;;;;;;14.10;nan;95509.09;5044523;28;20214;-71
2022/10/31 00:36:50;;;;;;;5.28;4.15;;;;;;;13.91;nan;95503.84;5043472;28;20297;-72
2022/10/31 00:39:17;;;;;;;6.10;5.38;;;;;;;14.01;nan;95494.94;5040876;28;20211;-72
2022/10/31 00:41:44;;;;;;;8.23;4.68;;;;;;;14.09;nan;95494.66;5035874;28;20251;-72
2022/10/31 00:44:10;;;;;;;7.93;4.45;;;;;;;13.91;nan;95493.63;5040806;28;20198;-71
2022/10/31 00:46:37;;;;;;;4.50;4.10;;;;;;;13.92;nan;95495.31;5046907;28;20202;-73
2022/10/31 00:49:05;;;;;;;5.78;4.47;;;;;;;13.97;nan;95490.84;5020584;28;20762;-72
2022/10/31 00:51:32;;;;;;;5.25;4.15;;;;;;;14.02;nan;95488.94;5046779;28;20235;-73
2022/10/31 00:53:59;;;;;;;7.45;4.82;;;;;;;14.09;nan;95492.91;5041299;28;20214;-72
2022/10/31 00:56:25;;;;;;;4.70;4.30;;;;;;;14.07;nan;95489.59;5045674;28;20258;-72
2022/10/31 00:58:52;;;;;;;5.20;4.53;;;;;;;14.03;nan;95495.72;5043704;28;20707;-72
2022/10/31 01:01:19;;;;;;;5.95;4.30;;;;;;;13.99;nan;95494.16;5043836;28;20649;-73
2022/10/31 01:03:46;;;;;;;4.95;4.45;;;;;;;13.98;nan;95505.28;5024864;28;20206;-72
2022/10/31 01:06:15;;;;;;;4.72;4.22;;;;;;;14.01;nan;95505.16;5044275;28;20210;-72
2022/10/31 01:08:42;;;;;;;5.22;4.78;;;;;;;14.14;nan;95501.22;5044341;28;20206;-72
2022/10/31 01:11:12;;;;;;;4.82;4.40;;;;;;;14.24;nan;95501.69;5043043;28;20231;-72
2022/10/31 01:13:39;;;;;;;5.40;4.20;;;;;;;14.24;nan;95506.78;5045143;28;20272;-72
2022/10/31 01:16:09;;;;;;;4.88;4.43;;;;;;;14.20;nan;95503.53;5045872;28;21133;-71
2022/10/31 01:18:36;;;;;;;6.03;4.95;;;;;;;14.17;nan;95515.59;5043144;28;20815;-72
2022/10/31 01:21:05;;;;;;;4.78;4.38;;;;;;;14.23;nan;95510.25;5042530;28;20210;-72
2022/10/31 01:23:34;;;;;;;4.85;4.53;;;;;;;14.26;nan;95505.84;5042934;28;20245;-72
2022/10/31 01:26:06;;;;;;;7.93;5.18;;;;;;;14.34;nan;95515.75;5042938;28;20265;-71
2022/10/31 01:28:33;;;;;;;4.75;4.32;;;;;;;14.48;nan;95515.22;5043594;28;20689;-70
2022/10/31 01:31:05;;;;;;;5.03;4.63;;;;;;;14.44;nan;95504.28;5038641;28;20965;-70
2022/10/31 01:33:32;;;;;;;6.20;4.32;;;;;;;14.35;nan;95507.19;5053033;28;20198;-73
2022/10/31 01:35:59;;;;;;;5.57;3.83;;;;;;;14.24;nan;95515.28;5050425;28;20206;-71
2022/10/31 01:38:26;;;;;;;7.72;4.43;;;;;;;14.29;nan;95504.88;5056562;28;20236;-70
2022/10/31 01:40:54;;;;;;;6.00;4.85;;;;;;;14.50;nan;95503.19;5047397;28;20644;-72
2022/10/31 01:43:21;;;;;;;6.03;5.50;;;;;;;14.68;nan;95510.09;5046438;28;20210;-72
2022/10/31 01:45:53;;;;;;;9.32;4.80;;;;;;;14.75;nan;95508.94;5053689;28;20194;-71
2022/10/31 01:48:24;;;;;;;6.05;4.40;;;;;;;14.87;nan;95510.97;5052881;28;20206;-73
2022/10/31 01:50:55;;;;;;;4.78;4.03;;;;;;;14.67;nan;95515.25;5046340;28;20227;-73
2022/10/31 01:53:23;;;;;;;5.07;4.65;;;;;;;14.59;nan;95518.16;5051804;28;20256;-73
2022/10/31 01:55:50;;;;;;;5.25;4.85;;;;;;;14.64;nan;95518.78;5045737;28;20296;-73
2022/10/31 01:58:21;;;;;;;8.15;4.97;;;;;;;14.42;nan;95520.56;5054525;28;20283;-72
2022/10/31 02:00:54;;;;;;;6.00;5.13;;;;;;;14.46;nan;95517.00;5047419;28;20210;-72
2022/10/31 02:03:23;;;;;;;7.53;5.35;;;;;;;14.53;nan;95519.25;5052338;28;20260;-72
2022/10/31 02:05:51;;;;;;;9.65;6.05;;;;;;;14.65;nan;95507.66;5054173;28;20210;-72
2022/10/31 02:08:22;;;;;;;7.47;4.53;;;;;;;14.80;nan;95512.13;5047446;28;20905;-72
2022/10/31 02:10:50;;;;;;;8.75;4.60;;;;;;;14.73;nan;95500.50;5052379;28;20996;-74
2022/10/31 02:13:19;;;;;;;7.90;5.25;;;;;;;14.72;nan;95498.84;5043325;28;20207;-73
2022/10/31 02:15:50;;;;;;;6.13;5.30;;;;;;;14.72;nan;95503.13;5051625;28;20211;-73
2022/10/31 02:18:18;;;;;;;5.68;5.10;;;;;;;14.60;nan;95499.34;5044961;28;20852;-71
2022/10/31 02:20:59;;;;;;;6.28;5.72;;;;;;;14.66;nan;95504.19;5043568;28;20374;-72
2022/10/31 02:24:12;;;;;;;6.93;6.30;;;;;;;14.44;nan;95506.00;5048772;28;20205;-72
2022/10/31 02:26:51;;;;;;;10.15;5.95;;;;;;;14.69;nan;95518.59;5049637;28;20260;-72
2022/10/31 02:29:51;;;;;;;6.15;5.65;;;;;;;14.61;nan;95521.47;5048225;28;20255;-71
2022/10/31 02:32:26;;;;;;;6.85;5.15;;;;;;;14.63;nan;95525.63;5043433;28;20219;-71
2022/10/31 02:35:00;;;;;;;6.32;4.95;;;;;;;14.44;nan;95529.00;5050506;28;21017;-71
2022/10/31 02:37:34;;;;;;;7.72;5.55;;;;;;;14.42;nan;95538.47;5044245;28;20210;-71
2022/10/31 02:40:11;;;;;;;5.95;5.40;;;;;;;14.40;nan;95527.44;5050467;28;20238;-71
2022/10/31 02:42:48;;;;;;;7.95;5.22;;;;;;;14.47;nan;95534.00;5038140;28;20210;-73
2022/10/31 02:45:21;;;;;;;8.02;5.38;;;;;;;14.57;nan;95540.41;5039462;28;20311;-71
2022/10/31 02:47:51;;;;;;;5.50;5.10;;;;;;;14.58;nan;95542.09;5036957;28;20218;-72
2022/10/31 02:50:23;;;;;;;6.13;5.53;;;;;;;14.58;nan;95549.75;5043729;28;20222;-73
2022/10/31 02:52:52;;;;;;;6.63;5.95;;;;;;;14.55;nan;95537.91;5039958;28;20202;-71
2022/10/31 02:55:49;;;;;;;7.22;5.75;;;;;;;14.43;nan;95545.25;5037413;28;20217;-71
2022/10/31 02:58:22;;;;;;;10.88;5.90;;;;;;;14.06;nan;95551.81;5028402;28;20257;-72
2022/10/31 03:01:00;;;;;;;7.28;5.65;;;;;;;14.05;nan;95547.59;5029541;28;20213;-72
2022/10/31 03:03:35;;;;;;;8.02;6.03;;;;;;;14.13;nan;95550.66;5028953;28;20256;-71
2022/10/31 03:06:09;;;;;;;6.15;5.72;;;;;;;14.17;nan;95546.28;5031942;28;20233;-73
2022/10/31 03:08:40;;;;;;;9.77;5.90;;;;;;;14.20;nan;95553.81;5027475;28;20634;-72
2022/10/31 03:11:09;;;;;;;8.93;5.95;;;;;;;14.16;nan;95560.78;5029433;28;20378;-71
2022/10/31 03:13:42;;;;;;;7.10;6.22;;;;;;;14.10;nan;95553.38;5028842;28;20744;-72
2022/10/31 03:16:14;;;;;;;6.55;5.82;;;;;;;14.24;nan;95548.53;5028690;28;20206;-72
2022/10/31 03:18:49;;;;;;;8.70;6.13;;;;;;;14.10;nan;95553.38;5028255;28;20283;-72
2022/10/31 03:21:19;;;;;;;10.45;6.45;;;;;;;14.07;nan;95550.94;5009635;28;20709;-72
2022/10/31 03:23:48;;;;;;;9.80;6.22;;;;;;;14.16;nan;95545.44;5028726;28;20932;-72
2022/10/31 03:26:16;;;;;;;7.82;6.65;;;;;;;14.24;nan;95557.91;5029612;28;20207;-72
2022/10/31 03:28:47;;;;;;;9.30;6.72;;;;;;;14.16;nan;95560.78;5028094;28;20210;-72
2022/10/31 03:31:18;;;;;;;10.32;6.53;;;;;;;14.06;nan;95564.59;5028628;28;20320;-72
2022/10/31 03:33:48;;;;;;;11.23;7.47;;;;;;;13.73;nan;95573.56;5028666;28;20209;-72
2022/10/31 03:36:17;;;;;;;9.75;6.97;;;;;;;13.57;nan;95563.91;5028925;28;20258;-71
2022/10/31 03:38:47;;;;;;;7.75;7.00;;;;;;;13.72;nan;95569.31;5028420;28;20211;-71
2022/10/31 03:41:18;;;;;;;7.95;6.93;;;;;;;13.70;nan;95566.00;5029166;28;20677;-71
2022/10/31 03:43:53;;;;;;;9.75;6.72;;;;;;;13.65;nan;95568.72;5028737;28;20254;-70
2022/10/31 03:46:19;;;;;;;8.73;6.50;;;;;;;13.49;nan;95573.56;5028435;28;20210;-72
2022/10/31 03:48:48;;;;;;;9.73;7.43;;;;;;;13.35;nan;95580.91;5028000;28;20261;-72
2022/10/31 03:51:21;;;;;;;10.73;7.20;;;;;;;13.40;nan;95575.63;5028339;28;20598;-72
2022/10/31 03:53:55;;;;;;;9.90;6.40;;;;;;;13.47;nan;95580.47;5027544;28;20237;-72
2022/10/31 03:56:27;;;;;;;10.35;6.88;;;;;;;13.26;nan;95583.78;5015830;28;20247;-72
2022/10/31 03:59:01;;;;;;;10.55;7.60;;;;;;;13.12;nan;95583.38;5006907;28;20314;-71
2022/10/31 04:01:31;;;;;;;9.63;7.53;;;;;;;12.84;nan;95589.47;5007370;28;20204;-71
2022/10/31 04:04:01;;;;;;;8.75;7.88;;;;;;;12.80;nan;95593.00;5009158;28;20198;-73
2022/10/31 04:06:28;;;;;;;10.43;6.97;;;;;;;13.06;nan;95588.72;5007941;28;20200;-72
2022/10/31 04:09:00;;;;;;;14.23;7.35;;;;;;;13.15;nan;95584.16;5005972;28;20683;-72
2022/10/31 04:11:31;;;;;;;8.05;7.30;;;;;;;12.96;nan;95590.75;5007604;28;20713;-71
2022/10/31 04:14:01;;;;;;;9.57;6.30;;;;;;;13.05;nan;95587.06;5007473;28;20235;-71
2022/10/31 04:16:28;;;;;;;9.80;7.03;;;;;;;13.01;nan;95594.00;5007183;28;20203;-71
2022/10/31 04:18:55;;;;;;;13.68;7.43;;;;;;;12.82;nan;95596.34;5004601;28;20211;-72
2022/10/31 04:21:28;;;;;;;9.52;8.18;;;;;;;12.83;nan;95592.91;5006803;28;20208;-72
2022/10/31 04:23:55;;;;;;;12.00;8.10;;;;;;;12.79;nan;95596.44;5006787;28;21240;-71
2022/10/31 04:26:22;;;;;;;12.80;8.60;;;;;;;12.69;nan;95594.22;5005829;28;20635;-72
2022/10/31 04:28:49;;;;;;;13.50;8.75;;;;;;;12.63;nan;95595.25;5006422;28;20277;-72
2022/10/31 04:31:16;;;;;;;13.57;7.70;;;;;;;12.86;nan;95597.91;5006751;28;20306;-71
2022/10/31 04:33:42;;;;;;;12.05;8.63;;;;;;;12.89;nan;95602.03;5008583;28;20266;-72
2022/10/31 04:36:09;;;;;;;12.55;9.07;;;;;;;13.05;nan;95598.09;5009618;28;20277;-73
2022/10/31 04:38:37;;;;;;;11.05;8.82;;;;;;;13.00;nan;95596.59;5008455;28;20587;-72
2022/10/31 04:41:04;;;;;;;13.95;8.38;;;;;;;12.85;nan;95598.78;5008010;28;20670;-72
2022/10/31 04:43:31;;;;;;;13.40;8.18;;;;;;;12.94;nan;95595.06;5008618;28;21780;-72
2022/10/31 04:46:00;;;;;;;24.58;8.50;;;;;;;12.62;nan;95596.16;5009974;28;20207;-71
2022/10/31 04:48:27;;;;;;;45.47;11.98;;;;;;;12.50;nan;95596.56;5009718;28;20787;-72
2022/10/31 04:50:53;;;;;;;32.67;10.35;;;;;;;12.66;nan;95605.38;5006494;28;20796;-71
2022/10/31 04:53:20;;;;;;;24.23;9.75;;;;;;;12.86;nan;95603.00;5008242;28;20207;-71
2022/10/31 04:55:48;;;;;;;30.95;9.57;;;;;;;12.90;nan;95609.66;5011563;28;20884;-70
2022/10/31 04:58:15;;;;;;;14.52;9.07;;;;;;;12.94;nan;95611.22;5022135;28;20270;-71
2022/10/31 05:00:41;;;;;;;21.70;9.43;;;;;;;13.04;nan;95610.91;5022322;28;20254;-71
2022/10/31 05:03:08;;;;;;;18.17;9.40;;;;;;;13.15;nan;95617.31;5022221;28;21377;-70
2022/10/31 05:05:35;;;;;;;13.73;8.88;;;;;;;13.01;nan;95619.50;5022580;28;20746;-72
2022/10/31 05:08:02;;;;;;;15.68;9.52;;;;;;;13.00;nan;95624.66;5021589;28;20219;-70
2022/10/31 05:10:30;;;;;;;14.45;8.93;;;;;;;13.24;nan;95621.28;5021865;28;20674;-71
2022/10/31 05:12:59;;;;;;;15.93;10.20;;;;;;;13.38;nan;95626.72;5021705;28;20206;-71
2022/10/31 05:15:28;;;;;;;19.20;9.98;;;;;;;13.40;nan;95627.50;5021755;28;20211;-71
2022/10/31 05:17:55;;;;;;;16.38;9.77;;;;;;;13.24;nan;95628.94;5020784;28;20223;-71
2022/10/31 05:20:25;;;;;;;27.10;11.23;;;;;;;13.26;nan;95627.19;5020153;28;20724;-71
2022/10/31 05:22:53;;;;;;;35.70;22.83;;;;;;;13.25;nan;95635.72;5021969;28;20970;-71
2022/10/31 05:25:22;;;;;;;47.25;27.77;;;;;;;13.24;nan;95623.84;5022137;28;20264;-72
2022/10/31 05:27:50;;;;;;;23.13;12.02;;;;;;;13.06;nan;95634.66;5025249;28;20214;-72
2022/10/31 05:30:21;;;;;;;24.85;12.07;;;;;;;13.31;nan;95630.41;5021044;28;20207;-72
2022/10/31 05:32:49;;;;;;;13.73;10.15;;;;;;;13.44;nan;95636.72;5023087;28;20231;-72
2022/10/31 05:35:18;;;;;;;12.55;9.90;;;;;;;13.37;nan;95637.00;5022894;28;20257;-72
2022/10/31 05:37:44;;;;;;;29.90;11.75;;;;;;;13.04;nan;95642.38;5023143;28;20712;-73
2022/10/31 05:40:13;;;;;;;22.83;11.50;;;;;;;13.17;nan;95650.44;5023677;28;20215;-73
2022/10/31 05:42:41;;;;;;;46.08;27.05;;;;;;;13.38;nan;95653.97;5023424;28;20215;-72
2022/10/31 05:45:08;;;;;;;37.30;23.98;;;;;;;13.57;nan;95652.47;5023828;28;20199;-73
2022/10/31 05:47:37;;;;;;;23.05;13.82;;;;;;;13.98;nan;95648.38;5023903;28;20214;-73
2022/10/31 05:50:05;;;;;;;23.13;14.82;;;;;;;14.35;nan;95647.00;5025157;28;20280;-72
2022/10/31 05:52:31;;;;;;;28.48;17.65;;;;;;;14.54;nan;95648.78;5023433;28;20737;-72
2022/10/31 05:54:58;;;;;;;37.22;22.75;;;;;;;14.97;nan;95653.00;5023276;28;20207;-72
2022/10/31 05:57:25;;;;;;;42.67;20.50;;;;;;;15.57;nan;95646.22;5038866;28;20241;-73
2022/10/31 05:59:52;;;;;;;31.35;17.42;;;;;;;15.82;nan;95652.81;5040410;28;20229;-73
2022/10/31 06:02:19;;;;;;;24.33;16.67;;;;;;;16.13;nan;95649.69;5039043;28;20213;-71
2022/10/31 06:04:48;;;;;;;27.60;16.05;;;;;;;16.72;nan;95652.03;5040897;28;20198;-73
2022/10/31 06:07:15;;;;;;;37.05;13.82;;;;;;;17.29;nan;95661.19;5038810;28;20222;-73
2022/10/31 06:09:42;;;;;;;25.75;13.98;;;;;;;17.68;nan;95657.50;5038876;28;20211;-72
2022/10/31 06:12:09;;;;;;;26.88;13.38;;;;;;;18.45;nan;95656.81;5038985;28;20246;-73
2022/10/31 06:14:35;;;;;;;28.20;15.23;;;;;;;18.52;nan;95660.72;5040163;28;21653;-72
2022/10/31 06:17:02;;;;;;;18.75;12.23;;;;;;;17.69;nan;95666.88;5037670;28;20218;-73
2022/10/31 06:19:29;;;;;;;18.60;13.00;;;;;;;17.53;nan;95666.81;5044356;28;20241;-74
2022/10/31 06:22:00;;;;;;;21.42;13.77;;;;;;;17.03;nan;95677.06;5044128;28;20230;-72
2022/10/31 06:24:30;;;;;;;20.17;13.10;;;;;;;16.85;nan;95683.91;5041003;28;20639;-73
2022/10/31 06:26:56;;;;;;;29.80;14.10;;;;;;;16.46;nan;95685.75;5038773;28;20203;-72
2022/10/31 06:29:23;;;;;;;17.48;12.57;;;;;;;16.54;nan;95683.69;5040768;28;20211;-72
2022/10/31 06:31:52;;;;;;;24.27;11.88;;;;;;;16.59;nan;95692.81;5043105;28;20222;-73
2022/10/31 06:34:19;;;;;;;29.92;13.57;;;;;;;18.27;nan;95680.06;5040553;28;20284;-72
2022/10/31 06:36:46;;;;;;;19.27;11.13;;;;;;;19.37;nan;95687.63;5042401;28;20272;-72
2022/10/31 06:39:15;;;;;;;24.00;11.05;;;;;;;19.34;nan;95684.38;5041410;28;20316;-71
2022/10/31 06:41:41;;;;;;;17.55;11.80;;;;;;;18.81;nan;95688.25;5040538;28;20203;-71
2022/10/31 06:44:09;;;;;;;15.68;11.13;;;;;;;18.11;nan;95691.25;5042266;28;20234;-74
2022/10/31 06:46:36;;;;;;;16.88;10.95;;;;;;;17.51;nan;95696.91;5042194;28;20215;-72
2022/10/31 06:49:03;;;;;;;18.67;12.00;;;;;;;16.98;nan;95695.25;5042899;28;20206;-75
2022/10/31 06:51:29;;;;;;;17.88;11.77;;;;;;;16.73;nan;95689.63;5039830;28;20299;-71
2022/10/31 06:53:56;;;;;;;28.02;12.88;;;;;;;16.31;nan;95690.72;5042288;28;20878;-72
2022/10/31 06:56:25;;;;;;;25.58;12.05;;;;;;;16.39;nan;95692.91;5034185;28;20262;-72
2022/10/31 06:58:52;;;;;;;15.82;11.93;;;;;;;17.72;nan;95695.00;5031879;28;20206;-72
2022/10/31 07:01:18;;;;;;;15.07;10.73;;;;;;;18.44;nan;95699.75;5032103;28;20740;-71
2022/10/31 07:03:45;;;;;;;21.58;15.60;;;;;;;17.67;nan;95695.22;5031570;28;20422;-71
2022/10/31 07:06:12;;;;;;;17.85;11.68;;;;;;;17.00;nan;95698.56;5030983;28;20665;-72
2022/10/31 07:08:39;;;;;;;22.52;14.30;;;;;;;16.89;nan;95695.69;5031514;28;20717;-72
2022/10/31 07:11:06;;;;;;;26.15;17.73;;;;;;;17.02;nan;95697.69;5029309;28;20721;-71
2022/10/31 07:13:34;;;;;;;20.73;11.77;;;;;;;17.13;nan;95698.78;5031692;28;20222;-73
2022/10/31 07:16:03;;;;;;;27.45;17.08;;;;;;;17.28;nan;95692.91;5030001;28;20805;-71
2022/10/31 07:18:30;;;;;;;16.80;13.25;;;;;;;18.02;nan;95695.97;5030277;28;20219;-72
2022/10/31 07:20:57;;;;;;;25.48;14.50;;;;;;;18.52;nan;95689.03;5030337;28;20296;-72
2022/10/31 07:23:24;;;;;;;25.17;14.82;;;;;;;19.16;nan;95688.03;5030407;28;20230;-72
2022/10/31 07:25:55;;;;;;;17.05;13.45;;;;;;;19.49;nan;95678.34;5031507;28;20648;-73
2022/10/31 07:28:22;;;;;;;20.90;14.98;;;;;;;19.38;nan;95675.56;5030587;28;20211;-72
2022/10/31 07:30:53;;;;;;;18.95;12.52;;;;;;;19.42;nan;95671.88;5030074;28;20210;-73
2022/10/31 07:33:20;;;;;;;21.63;12.77;;;;;;;20.88;nan;95662.88;5031183;28;20235;-72
2022/10/31 07:35:47;;;;;;;15.32;12.23;;;;;;;22.68;nan;95666.97;5030556;28;20194;-73
2022/10/31 07:38:15;;;;;;;20.25;11.85;;;;;;;22.38;nan;95677.75;5030801;28;20712;-73
2022/10/31 07:40:43;;;;;;;21.60;12.75;;;;;;;22.14;nan;95666.53;5029392;28;20207;-73
2022/10/31 07:43:12;;;;;;;16.73;12.63;;;;;;;22.16;nan;95663.81;5030830;28;20856;-73
2022/10/31 07:45:39;;;;;;;23.88;13.30;;;;;;;21.91;nan;95669.84;5031125;28;21442;-73
2022/10/31 07:48:07;;;;;;;22.67;12.40;;;;;;;21.15;nan;95664.59;5030908;28;20684;-72
2022/10/31 07:50:34;;;;;;;18.50;13.57;;;;;;;20.44;nan;95670.06;5030316;28;20203;-73
2022/10/31 07:53:03;;;;;;;22.58;14.35;;;;;;;19.97;nan;95664.28;5012169;28;20281;-73
2022/10/31 07:55:30;;;;;;;25.23;14.77;;;;;;;19.94;nan;95666.22;5030375;28;20283;-73
2022/10/31 07:57:58;;;;;;;20.27;14.85;;;;;;;20.76;nan;95665.44;5022331;28;20338;-72
2022/10/31 08:00:24;;;;;;;27.38;16.52;;;;;;;23.99;nan;95656.41;5026462;28;20208;-73
2022/10/31 08:02:57;;;;;;;28.17;15.77;;;;;;;26.64;nan;95650.94;5024141;28;20234;-72
2022/10/31 08:05:26;;;;;;;24.77;13.70;;;;;;;28.93;nan;95653.25;5024235;28;20204;-73
2022/10/31 08:07:53;;;;;;;25.77;14.35;;;;;;;30.16;nan;95650.56;5027358;28;20227;-72
2022/10/31 08:10:21;;;;;;;26.40;15.05;;;;;;;30.77;nan;95655.53;5029428;28;20210;-74
2022/10/31 08:12:48;;;;;;;18.17;12.88;;;;;;;30.88;nan;95657.88;5026229;28;20963;-71
2022/10/31 08:15:15;;;;;;;19.00;12.15;;;;;;;31.67;nan;95657.28;5026786;28;20642;-71
2022/10/31 08:17:42;;;;;;;18.02;13.10;;;;;;;31.26;nan;95655.63;5026034;28;20207;-73
2022/10/31 08:20:09;;;;;;;17.25;12.57;;;;;;;31.54;nan;95659.56;5026804;28;20207;-72
2022/10/31 08:22:37;;;;;;;14.63;12.07;;;;;;;31.62;nan;95654.31;5021664;28;20211;-73
2022/10/31 08:25:05;;;;;;;26.50;13.18;;;;;;;33.03;nan;95652.66;5021071;28;20222;-73
2022/10/31 08:27:32;;;;;;;24.95;16.92;;;;;;;33.06;nan;95647.84;5024897;28;20199;-72
2022/10/31 08:29:59;;;;;;;19.02;12.02;;;;;;;33.24;nan;95650.19;5024196;28;20272;-72
2022/10/31 08:32:26;;;;;;;22.98;13.77;;;;;;;34.08;nan;95651.75;5025803;28;20223;-73
2022/10/31 08:34:52;;;;;;;15.73;11.20;;;;;;;34.16;nan;95644.72;5017962;28;20199;-73
2022/10/31 08:37:19;;;;;;;16.20;12.13;;;;;;;34.09;nan;95644.66;5024873;28;20636;-73
2022/10/31 08:39:48;;;;;;;23.77;12.13;;;;;;;33.58;nan;95636.59;5024084;28;20204;-69
2022/10/31 08:42:14;;;;;;;18.10;11.65;;;;;;;34.74;nan;95643.88;5022558;28;20212;-70
2022/10/31 08:44:41;;;;;;;21.33;15.70;;;;;;;34.96;nan;95640.28;5023112;28;20624;-70
2022/10/31 08:47:08;;;;;;;15.73;11.80;;;;;;;34.27;nan;95642.47;5021515;28;20211;-71
2022/10/31 08:49:34;;;;;;;17.33;11.85;;;;;;;35.29;nan;95637.16;5022821;28;20242;-73
2022/10/31 08:52:01;;;;;;;17.00;11.43;;;;;;;35.66;nan;95642.13;5021922;28;20312;-71
2022/10/31 08:54:28;;;;;;;22.95;12.18;;;;;;;35.11;nan;95638.41;5022618;28;20212;-71
2022/10/31 08:56:57;;;;;;;14.13;12.18;;;;;;;35.18;nan;95640.28;5024992;28;20320;-72
2022/10/31 08:59:24;;;;;;;14.73;11.30;;;;;;;33.70;nan;95640.41;5027102;28;20268;-72
2022/10/31 09:01:50;;;;;;;13.55;11.80;;;;;;;33.08;nan;95637.16;5022338;28;20246;-72
2022/10/31 09:04:17;;;;;;;19.75;13.45;;;;;;;33.34;nan;95642.09;5024966;28;20281;-71
2022/10/31 09:06:44;;;;;;;19.33;12.95;;;;;;;33.02;nan;95638.66;5023863;28;20269;-72
2022/10/31 09:09:11;;;;;;;18.45;12.48;;;;;;;32.57;nan;95646.50;5024598;28;20207;-72
2022/10/31 09:11:38;;;;;;;17.92;11.20;;;;;;;32.58;nan;95642.88;5022401;28;20264;-71
2022/10/31 09:14:06;;;;;;;25.95;17.52;;;;;;;33.25;nan;95643.09;5023173;28;20227;-72
2022/10/31 09:16:33;;;;;;;19.38;11.38;;;;;;;31.90;nan;95639.00;5022420;28;20202;-71
2022/10/31 09:18:59;;;;;;;15.98;10.82;;;;;;;31.14;nan;95638.56;5020714;28;20945;-72
2022/10/31 09:21:26;;;;;;;14.35;12.00;;;;;;;30.58;nan;95635.66;5021820;28;20253;-71
2022/10/31 09:23:53;;;;;;;18.38;12.07;;;;;;;29.98;nan;95634.88;5020717;28;20195;-75
2022/10/31 09:26:20;;;;;;;12.45;10.65;;;;;;;30.26;nan;95628.47;5019172;28;20215;-69
2022/10/31 09:28:47;;;;;;;11.18;10.07;;;;;;;29.30;nan;95626.88;5022901;28;20292;-70
2022/10/31 09:31:15;;;;;;;10.75;9.75;;;;;;;29.44;nan;95635.06;5018228;28;20422;-71
2022/10/31 09:33:42;;;;;;;10.98;9.32;;;;;;;28.89;nan;95631.78;5019061;28;20285;-70
2022/10/31 09:36:09;;;;;;;10.82;9.10;;;;;;;28.87;nan;95625.88;5016505;28;20207;-70
2022/10/31 09:38:36;;;;;;;16.85;10.05;;;;;;;28.31;nan;95624.28;5019638;28;20799;-72
2022/10/31 09:41:13;;;;;;;15.25;9.20;;;;;;;27.87;nan;95631.06;5019088;28;20203;-70
2022/10/31 09:43:49;;;;;;;18.15;11.82;;;;;;;26.95;nan;95632.59;5019503;28;20673;-72
2022/10/31 09:46:30;;;;;;;14.43;8.95;;;;;;;26.27;nan;95632.41;5020338;28;20252;-71
2022/10/31 09:49:17;;;;;;;17.38;9.52;;;;;;;25.42;nan;95630.13;5020112;28;20277;-71
2022/10/31 09:51:50;;;;;;;9.55;8.25;;;;;;;24.82;nan;95625.53;5022138;28;20778;-70
2022/10/31 09:54:21;;;;;;;12.77;7.90;;;;;;;24.29;nan;95627.22;5026182;28;20554;-73
2022/10/31 09:56:48;;;;;;;17.92;10.10;;;;;;;24.03;nan;95626.63;5035781;28;20243;-72
2022/10/31 09:59:25;;;;;;;11.32;8.45;;;;;;;23.74;nan;95624.56;5041876;28;20587;-70
2022/10/31 10:01:57;;;;;;;12.73;8.55;;;;;;;23.56;nan;95618.16;5044370;28;20206;-73
2022/10/31 10:04:44;;;;;;;12.50;8.10;;;;;;;23.83;nan;95619.56;5043306;28;20871;-75
2022/10/31 10:07:20;;;;;;;10.90;7.75;;;;;;;24.08;nan;95620.16;5040843;28;21103;-71
2022/10/31 10:09:47;;;;;;;10.18;7.03;;;;;;;24.30;nan;95608.94;5042328;28;20209;-72
2022/10/31 10:12:23;;;;;;;8.00;7.20;;;;;;;24.24;nan;95604.25;5042595;28;20229;-71
2022/10/31 10:15:07;;;;;;;16.00;7.28;;;;;;;24.07;nan;95607.28;5043288;28;20210;-71
2022/10/31 10:17:42;;;;;;;12.52;6.95;;;;;;;24.29;nan;95601.25;5042566;28;20198;-71
2022/10/31 10:20:21;;;;;;;15.27;6.75;;;;;;;24.41;nan;95601.13;5034567;28;20283;-71
2022/10/31 10:22:56;;;;;;;3.72;3.45;;;;;;;24.46;nan;95587.75;5039104;28;20210;-72
2022/10/31 10:25:25;;;;;;;7.28;6.55;;;;;;;24.29;nan;95591.69;5042176;28;20311;-71
2022/10/31 10:28:08;;;;;;;13.68;6.63;;;;;;;24.44;nan;95592.25;5043057;28;20808;-73
2022/10/31 10:30:41;;;;;;;10.45;6.40;;;;;;;24.35;nan;95578.22;5041391;28;20630;-71
2022/10/31 10:33:13;;;;;;;9.05;5.65;;;;;;;24.36;nan;95577.28;5043804;28;20227;-71
2022/10/31 10:35:44;;;;;;;9.45;6.18;;;;;;;24.27;nan;95572.81;5039748;28;20206;-70
2022/10/31 10:38:21;;;;;;;9.55;6.90;;;;;;;24.22;nan;95574.09;5043740;28;20245;-72
2022/10/31 10:40:48;;;;;;;8.73;6.70;;;;;;;24.44;nan;95565.44;5041818;28;20432;-71
2022/10/31 10:43:24;;;;;;;11.70;6.10;;;;;;;24.46;nan;95563.56;5042246;28;21274;-72
2022/10/31 10:48:50;;;;;;;7.18;5.22;;;;;;;24.41;nan;95562.16;5041773;28;20210;-74
2022/10/31 10:51:23;;;;;;;9.43;4.88;;;;;;;24.37;nan;95558.13;5041954;28;20269;-72
2022/10/31 10:54:04;;;;;;;5.93;5.35;;;;;;;24.37;nan;95555.53;5040168;28;20312;-71
2022/10/31 10:56:40;;;;;;;10.23;5.45;;;;;;;24.19;nan;95559.59;5041312;28;20242;-71
2022/10/31 10:59:12;;;;;;;6.25;3.60;;;;;;;24.21;nan;95555.09;5041853;28;20202;-72
2022/10/31 11:01:41;;;;;;;7.82;4.43;;;;;;;24.19;nan;95559.59;5042962;28;20664;-71
2022/10/31 11:04:26;;;;;;;7.95;4.72;;;;;;;24.41;nan;95556.13;5040234;28;20252;-71
2022/10/31 11:07:04;;;;;;;11.07;4.22;;;;;;;24.53;nan;95552.53;5041791;28;20222;-72
2022/10/31 11:09:32;;;;;;;5.82;4.95;;;;;;;24.24;nan;95549.69;5040428;28;20649;-70
2022/10/31 11:11:59;;;;;;;8.45;4.78;;;;;;;23.89;nan;95546.44;5041689;28;20207;-72
2022/10/31 11:14:28;;;;;;;5.03;4.30;;;;;;;24.17;nan;95540.69;5040466;28;20226;-71
2022/10/31 11:17:08;;;;;;;7.25;4.60;;;;;;;24.35;nan;95543.63;5042796;28;20215;-71
2022/10/31 11:19:37;;;;;;;10.32;4.57;;;;;;;24.49;nan;95539.94;5040453;28;20208;-71
2022/10/31 11:22:08;;;;;;;6.75;4.07;;;;;;;24.44;nan;95542.06;5040350;28;20199;-72
2022/10/31 11:24:40;;;;;;;5.55;3.83;;;;;;;24.44;nan;95532.50;5041119;28;20207;-71
2022/10/31 11:27:15;;;;;;;6.95;4.15;;;;;;;24.36;nan;95530.50;5040029;28;20226;-71
2022/10/31 11:29:42;;;;;;;9.88;4.70;;;;;;;24.36;nan;95524.50;5041198;28;20637;-73
2022/10/31 11:32:19;;;;;;;5.45;4.60;;;;;;;24.41;nan;95525.78;5041949;28;20207;-72
2022/10/31 11:34:52;;;;;;;16.70;8.40;;;;;;;24.60;nan;95527.69;5041389;28;20303;-71
2022/10/31 11:37:22;;;;;;;25.33;17.33;;;;;;;24.73;nan;95522.34;5042001;28;20275;-71
2022/10/31 11:39:54;;;;;;;7.63;5.47;;;;;;;24.60;nan;95527.69;5042007;28;20261;-70
2022/10/31 11:42:23;;;;;;;16.65;9.18;;;;;;;24.54;nan;95517.78;5040532;28;20211;-70
2022/10/31 11:44:51;;;;;;;13.10;4.80;;;;;;;24.52;nan;95519.69;5040865;28;20260;-72
2022/10/31 11:47:22;;;;;;;7.85;5.10;;;;;;;24.50;nan;95515.59;5039920;28;20752;-72
2022/10/31 11:49:51;;;;;;;8.20;5.10;;;;;;;24.37;nan;95508.78;5040189;28;20684;-72
2022/10/31 11:52:21;;;;;;;8.38;5.00;;;;;;;24.29;nan;95513.75;5041563;28;20215;-72
2022/10/31 11:54:51;;;;;;;9.02;5.10;;;;;;;24.42;nan;95505.81;5040242;28;20285;-72